KMTJ/MTJ METAR and TAF weather

Enter ICAO airport designator
Station Type Date Time Source
KMTJ METAR 2019/06/26 15:53 UTC NOAA

KMTJ 261553Z AUTO 35003KT 10SM CLR 24/M01 A3015 RMK AO2 SLP126 T02441006


Station Type Date Time Source
KMTJ Decoded METAR 2019/06/26 15:53 UTC NOAA

MONTROSE REGIONAL AIRPORT, CO, United States (KMTJ) 38-30N 107-54W 1750M
Jun 26, 2019 - 11:53 AM EDT / 2019.06.26 1553 UTC
Wind: from the N (350 degrees) at 3 MPH (3 KT):0
Visibility: 10 mile(s):0
Sky conditions: clear
Temperature: 75.9 F (24.4 C)
Dew Point: 30.9 F (-0.6 C)
Relative Humidity: 19%
Pressure (altimeter): 30.15 in. Hg (1020 hPa)
ob: KMTJ 261553Z AUTO 35003KT 10SM CLR 24/M01 A3015 RMK AO2 SLP126 T02441006
cycle: 16

Station Type Date Time Source
KMTJ TAF 2019/06/26 12:22 UTC NOAA

TAF KMTJ 261120Z 2612/2712 13008KT P6SM SCT200
FM261600 25010KT P6SM SCT200
FM261900 24012G22KT P6SM SCT200
FM270400 15008KT P6SM FEW250

Example: see airport list